createdAt,value
2023-08-25T00:00:06.737Z,19.63
2023-08-25T00:02:40.358Z,19.70
2023-08-25T00:05:10.678Z,19.76
2023-08-25T00:07:38.415Z,19.82
2023-08-25T00:10:07.840Z,19.88
2023-08-25T00:12:36.866Z,19.90
2023-08-25T00:15:05.986Z,19.92
2023-08-25T00:17:34.067Z,19.96
2023-08-25T00:20:02.368Z,19.98
2023-08-25T00:22:31.418Z,20.03
2023-08-25T00:24:59.104Z,20.06
2023-08-25T00:27:26.720Z,20.11
2023-08-25T00:29:55.114Z,20.17
2023-08-25T00:32:22.926Z,20.22
2023-08-25T00:34:50.664Z,20.28
2023-08-25T00:37:18.318Z,20.32
2023-08-25T00:39:47.964Z,20.39
2023-08-25T00:42:15.627Z,20.42
2023-08-25T00:44:45.573Z,20.45
2023-08-25T00:47:13.673Z,20.48
2023-08-25T00:49:43.562Z,20.53
2023-08-25T00:52:12.776Z,20.55
2023-08-25T00:54:41.641Z,20.56
2023-08-25T00:57:10.773Z,20.62
2023-08-25T00:59:40.697Z,20.64
2023-08-25T01:02:09.397Z,20.67
2023-08-25T01:04:37.149Z,20.70
2023-08-25T01:07:04.931Z,20.73
2023-08-25T01:09:33.661Z,20.77
2023-08-25T01:12:05.493Z,20.78
2023-08-25T01:14:44.483Z,20.77
2023-08-25T01:17:17.104Z,20.76
2023-08-25T01:19:58.188Z,20.71
2023-08-25T01:22:35.066Z,20.63
2023-08-25T01:25:24.753Z,20.52
2023-08-25T01:27:53.702Z,20.41
2023-08-25T01:30:23.956Z,20.31
2023-08-25T01:32:52.472Z,20.24
2023-08-25T01:35:25.209Z,20.13
2023-08-25T01:37:59.792Z,20.03
2023-08-25T01:40:39.527Z,19.93
2023-08-25T01:43:11.425Z,19.83
2023-08-25T01:45:39.239Z,19.72
2023-08-25T01:48:08.877Z,19.61
2023-08-25T01:50:37.275Z,19.52
2023-08-25T01:53:05.290Z,19.42
2023-08-25T01:55:35.045Z,19.32
2023-08-25T01:58:04.239Z,19.21
2023-08-25T02:00:31.987Z,19.13
2023-08-25T02:03:01.107Z,19.03
2023-08-25T02:05:29.830Z,18.96
2023-08-25T02:07:57.614Z,18.89
2023-08-25T02:10:25.302Z,18.83
2023-08-25T02:12:54.459Z,18.76
2023-08-25T02:15:22.154Z,18.69
2023-08-25T02:17:49.986Z,18.64
2023-08-25T02:20:17.901Z,18.60
2023-08-25T02:22:45.556Z,18.55
2023-08-25T02:25:13.231Z,18.52
2023-08-25T02:27:41.118Z,18.49
2023-08-25T02:30:11.760Z,18.45
2023-08-25T02:32:39.898Z,18.39
2023-08-25T02:35:09.487Z,18.37
2023-08-25T02:37:37.292Z,18.35
2023-08-25T02:40:05.674Z,18.29
2023-08-25T02:42:33.376Z,18.24
2023-08-25T02:45:01.034Z,18.21
2023-08-25T02:47:31.346Z,18.16
2023-08-25T02:49:59.250Z,18.12
2023-08-25T02:52:27.099Z,18.07
2023-08-25T02:54:54.966Z,18.05
2023-08-25T02:57:23.941Z,18.02
2023-08-25T02:59:51.607Z,17.99
2023-08-25T03:02:19.406Z,17.96
2023-08-25T03:04:48.473Z,17.93
2023-08-25T03:07:16.124Z,17.87
2023-08-25T03:09:43.855Z,17.84
2023-08-25T03:12:11.717Z,17.80
2023-08-25T03:14:39.817Z,17.77
2023-08-25T03:17:07.541Z,17.73
2023-08-25T03:19:35.281Z,17.69
2023-08-25T03:22:04.387Z,17.65
2023-08-25T03:24:34.484Z,17.61
2023-08-25T03:27:02.245Z,17.60
2023-08-25T03:29:30.020Z,17.58
2023-08-25T03:31:57.764Z,17.56
2023-08-25T03:34:25.547Z,17.54
2023-08-25T03:36:53.270Z,17.52
2023-08-25T03:39:22.750Z,17.51
2023-08-25T03:41:50.504Z,17.46
2023-08-25T03:44:18.477Z,17.44
2023-08-25T03:46:46.999Z,17.41
2023-08-25T03:49:14.744Z,17.36
2023-08-25T03:51:43.206Z,17.36
2023-08-25T03:54:12.576Z,17.33
2023-08-25T03:56:41.709Z,17.31
2023-08-25T03:59:12.476Z,17.31
2023-08-25T04:01:40.245Z,17.29
2023-08-25T04:04:08.186Z,17.28
2023-08-25T04:06:35.974Z,17.26
2023-08-25T04:09:03.828Z,17.24
2023-08-25T04:11:31.568Z,17.25
2023-08-25T04:14:00.595Z,17.21
2023-08-25T04:16:28.622Z,17.21
2023-08-25T04:18:56.518Z,17.20
2023-08-25T04:21:24.245Z,17.20
2023-08-25T04:23:51.952Z,17.21
2023-08-25T04:26:19.851Z,17.21
2023-08-25T04:28:47.514Z,17.23
2023-08-25T04:31:16.992Z,17.24
2023-08-25T04:33:50.386Z,17.25
2023-08-25T04:36:18.169Z,17.26
2023-08-25T04:38:45.856Z,17.28
2023-08-25T04:41:13.793Z,17.31
2023-08-25T04:43:41.514Z,17.34
2023-08-25T04:46:09.424Z,17.36
2023-08-25T04:48:39.272Z,17.41
2023-08-25T04:51:09.732Z,17.47
2023-08-25T04:53:37.444Z,17.52
2023-08-25T04:56:05.629Z,17.57
2023-08-25T04:58:33.656Z,17.64
2023-08-25T05:01:01.423Z,17.69
2023-08-25T05:03:29.351Z,17.77
2023-08-25T05:05:58.521Z,17.88
2023-08-25T05:08:27.405Z,17.98
2023-08-25T05:10:55.829Z,18.06
2023-08-25T05:13:26.429Z,18.14
2023-08-25T05:15:55.761Z,18.22
2023-08-25T05:18:42.251Z,18.33
2023-08-25T05:21:13.577Z,18.43
2023-08-25T05:23:47.338Z,18.55
2023-08-25T05:26:15.416Z,18.67
2023-08-25T05:28:46.491Z,18.77
2023-08-25T05:31:14.241Z,18.87
2023-08-25T05:34:04.847Z,18.97
2023-08-25T05:36:37.157Z,19.09
2023-08-25T05:39:06.860Z,19.18
2023-08-25T05:41:35.010Z,19.27
2023-08-25T05:44:03.286Z,19.36
2023-08-25T05:46:31.359Z,19.46
2023-08-25T05:48:59.772Z,19.54
2023-08-25T05:51:28.841Z,19.61
2023-08-25T05:53:58.144Z,19.68
2023-08-25T05:56:27.017Z,19.77
2023-08-25T05:58:54.742Z,19.85
2023-08-25T06:01:22.487Z,19.93
2023-08-25T06:03:50.246Z,19.98
2023-08-25T06:06:18.101Z,20.04
2023-08-25T06:08:45.832Z,20.12
2023-08-25T06:11:15.186Z,20.19
2023-08-25T06:13:42.969Z,20.24
2023-08-25T06:16:11.168Z,20.27
2023-08-25T06:18:41.281Z,20.33
2023-08-25T06:21:09.025Z,20.40
2023-08-25T06:23:36.709Z,20.45
2023-08-25T06:26:04.354Z,20.52
2023-08-25T06:28:34.498Z,20.58
2023-08-25T06:31:02.167Z,20.64
2023-08-25T06:33:31.110Z,20.72
2023-08-25T06:35:59.189Z,20.81
2023-08-25T06:38:26.884Z,20.87
2023-08-25T06:40:56.051Z,20.91
2023-08-25T06:43:23.842Z,21.01
2023-08-25T06:45:52.930Z,21.07
2023-08-25T06:48:20.819Z,21.14
2023-08-25T06:50:48.497Z,21.18
2023-08-25T06:53:16.517Z,21.22
2023-08-25T06:55:44.465Z,21.25
2023-08-25T06:58:12.348Z,21.28
2023-08-25T07:00:40.131Z,21.33
2023-08-25T07:03:09.310Z,21.36
2023-08-25T07:05:39.191Z,21.40
2023-08-25T07:08:07.461Z,21.46
2023-08-25T07:10:35.725Z,21.56
2023-08-25T07:13:03.914Z,21.62
2023-08-25T07:15:31.665Z,21.65
2023-08-25T07:18:04.899Z,21.64
2023-08-25T07:20:34.162Z,21.72
2023-08-25T07:23:01.799Z,21.79
2023-08-25T07:25:29.868Z,21.84
2023-08-25T07:27:57.506Z,21.90
2023-08-25T07:30:25.188Z,22.02
2023-08-25T07:32:52.886Z,22.10
2023-08-25T07:35:20.991Z,22.19
2023-08-25T07:37:52.844Z,22.31
2023-08-25T07:40:22.705Z,22.46
2023-08-25T07:42:50.311Z,22.64
2023-08-25T07:45:20.202Z,22.86
2023-08-25T07:47:48.065Z,23.13
2023-08-25T07:50:15.813Z,23.40
2023-08-25T07:52:43.671Z,23.53
2023-08-25T07:55:13.263Z,23.70
2023-08-25T07:57:41.054Z,23.89
2023-08-25T08:00:13.744Z,24.05
2023-08-25T08:02:41.612Z,24.24
2023-08-25T08:05:09.433Z,24.43
2023-08-25T08:07:37.208Z,24.79
2023-08-25T08:10:05.709Z,25.14
2023-08-25T08:12:34.968Z,25.43
2023-08-25T08:15:02.780Z,25.63
2023-08-25T08:17:30.630Z,25.85
2023-08-25T08:19:58.310Z,26.07
2023-08-25T08:22:27.229Z,26.24
2023-08-25T08:24:55.295Z,26.26
2023-08-25T08:27:24.560Z,26.13
2023-08-25T08:29:53.851Z,26.18
2023-08-25T08:32:22.580Z,26.23
2023-08-25T08:34:50.462Z,26.14
2023-08-25T08:37:18.369Z,26.19
2023-08-25T08:39:46.456Z,26.33
2023-08-25T08:42:15.483Z,26.31
2023-08-25T08:44:47.781Z,26.24
2023-08-25T08:47:17.716Z,26.25
2023-08-25T08:49:47.076Z,26.21
2023-08-25T08:52:14.824Z,26.12
2023-08-25T08:54:43.527Z,25.96
2023-08-25T08:57:14.070Z,25.83
2023-08-25T08:59:42.293Z,25.60
2023-08-25T09:02:12.125Z,25.33
2023-08-25T09:04:43.015Z,25.10
2023-08-25T09:07:13.860Z,24.88
2023-08-25T09:09:42.321Z,24.68
2023-08-25T09:12:10.473Z,24.43
2023-08-25T09:14:38.142Z,24.14
2023-08-25T09:17:07.321Z,23.88
2023-08-25T09:19:35.738Z,23.66
2023-08-25T09:22:04.803Z,23.44
2023-08-25T09:24:34.377Z,23.35
2023-08-25T09:27:02.166Z,23.22
2023-08-25T09:29:42.061Z,23.09
2023-08-25T09:32:15.256Z,23.02
2023-08-25T09:34:43.810Z,22.90
2023-08-25T09:37:12.800Z,22.83
2023-08-25T09:39:44.531Z,22.73
2023-08-25T09:42:12.809Z,22.59
2023-08-25T09:44:43.115Z,22.44
2023-08-25T09:47:12.090Z,22.34
2023-08-25T09:49:40.662Z,22.23
2023-08-25T09:52:08.924Z,22.13
2023-08-25T09:54:37.980Z,21.97
2023-08-25T09:57:06.030Z,21.85
2023-08-25T09:59:33.723Z,21.76
2023-08-25T10:02:02.128Z,21.68
2023-08-25T10:04:30.006Z,21.60
2023-08-25T10:06:57.829Z,21.50
2023-08-25T10:09:26.130Z,21.42
2023-08-25T10:11:57.438Z,21.37
2023-08-25T10:14:27.930Z,21.30
2023-08-25T10:16:55.658Z,21.22
2023-08-25T10:19:25.533Z,21.15
2023-08-25T10:21:54.282Z,21.07
2023-08-25T10:24:23.547Z,20.99
2023-08-25T10:26:53.011Z,20.96
2023-08-25T10:29:25.392Z,20.92
2023-08-25T10:31:59.261Z,20.83
2023-08-25T10:34:35.306Z,20.79
2023-08-25T10:37:07.390Z,20.74
2023-08-25T10:39:49.317Z,20.68
2023-08-25T10:42:21.467Z,20.65
2023-08-25T10:44:55.217Z,20.67
2023-08-25T10:47:23.686Z,20.67
2023-08-25T10:49:55.190Z,20.69
2023-08-25T10:52:23.709Z,20.70
2023-08-25T10:54:53.357Z,20.76
2023-08-25T10:57:22.351Z,20.87
2023-08-25T10:59:58.847Z,21.00
2023-08-25T11:02:36.588Z,21.08
2023-08-25T11:05:45.975Z,21.19
2023-08-25T11:08:30.408Z,21.25
2023-08-25T11:11:12.095Z,21.25
2023-08-25T11:13:40.914Z,21.29
2023-08-25T11:16:12.123Z,21.34
2023-08-25T11:18:41.519Z,21.42
2023-08-25T11:21:09.373Z,21.44
2023-08-25T11:23:39.180Z,21.45
2023-08-25T11:26:08.998Z,21.39
2023-08-25T11:28:37.000Z,21.26
2023-08-25T11:31:05.723Z,21.32
2023-08-25T11:33:35.987Z,21.40
2023-08-25T11:36:05.662Z,21.40
2023-08-25T11:38:33.831Z,21.38
2023-08-25T11:41:01.715Z,21.43
2023-08-25T11:43:30.845Z,21.41
2023-08-25T11:45:59.258Z,21.45
2023-08-25T11:48:27.185Z,21.51
2023-08-25T11:50:56.490Z,21.38
2023-08-25T11:53:24.260Z,21.36
2023-08-25T11:56:05.774Z,21.40
2023-08-25T11:58:35.076Z,21.40
2023-08-25T12:01:06.099Z,21.33
2023-08-25T12:03:33.922Z,21.32
2023-08-25T12:06:06.468Z,21.31
2023-08-25T12:08:34.877Z,21.40
2023-08-25T12:11:03.260Z,21.43
2023-08-25T12:13:33.042Z,21.38
2023-08-25T12:16:00.754Z,21.31
2023-08-25T12:18:35.821Z,21.21
2023-08-25T12:21:07.272Z,21.18
2023-08-25T12:23:36.834Z,21.20
2023-08-25T12:26:05.749Z,21.26
2023-08-25T12:28:34.082Z,21.43
2023-08-25T12:31:02.628Z,21.61
2023-08-25T12:33:30.734Z,21.75
2023-08-25T12:35:59.753Z,21.94
2023-08-25T12:38:31.028Z,22.04
2023-08-25T12:41:02.339Z,22.14
2023-08-25T12:43:29.317Z,22.34
2023-08-25T12:45:57.715Z,22.42
2023-08-25T12:48:25.682Z,22.49
2023-08-25T12:50:53.317Z,22.61
2023-08-25T12:53:21.307Z,22.83
2023-08-25T12:55:50.406Z,22.96
2023-08-25T12:58:18.110Z,23.14
2023-08-25T13:00:45.881Z,23.45
2023-08-25T13:03:13.949Z,23.76
2023-08-25T13:05:42.548Z,23.92
2023-08-25T13:08:10.466Z,24.20
2023-08-25T13:10:38.167Z,24.00
2023-08-25T13:13:07.673Z,23.88
2023-08-25T13:15:36.239Z,23.90
2023-08-25T13:18:04.532Z,24.13
2023-08-25T13:20:32.224Z,24.35
2023-08-25T13:22:59.898Z,24.44
2023-08-25T13:25:27.570Z,24.43
2023-08-25T13:27:55.518Z,24.45
2023-08-25T13:30:24.791Z,24.49
2023-08-25T13:32:52.682Z,24.67
2023-08-25T13:35:20.372Z,24.91
2023-08-25T13:37:48.053Z,25.05
2023-08-25T13:40:15.701Z,25.22
2023-08-25T13:42:43.374Z,25.24
2023-08-25T13:45:11.904Z,25.17
2023-08-25T13:47:41.476Z,24.98
2023-08-25T13:50:11.315Z,24.94
2023-08-25T13:52:39.190Z,25.02
2023-08-25T13:55:08.216Z,24.99
2023-08-25T13:57:38.870Z,25.04
2023-08-25T14:00:08.304Z,25.01
2023-08-25T14:02:44.649Z,25.07
2023-08-25T14:05:14.033Z,25.14
2023-08-25T14:07:42.135Z,25.16
2023-08-25T14:10:10.805Z,25.10
2023-08-25T14:12:39.612Z,24.68
2023-08-25T14:15:09.178Z,24.45
2023-08-25T14:17:37.345Z,24.31
2023-08-25T14:20:08.035Z,24.38
2023-08-25T14:22:35.739Z,24.51
2023-08-25T14:25:03.552Z,24.58
2023-08-25T14:27:31.383Z,24.63
2023-08-25T14:30:00.979Z,24.58
2023-08-25T14:32:29.111Z,24.53
2023-08-25T14:34:57.185Z,24.70
2023-08-25T14:37:26.245Z,24.87
2023-08-25T14:39:54.448Z,24.82
2023-08-25T14:42:22.399Z,24.61
2023-08-25T14:44:50.123Z,24.41
2023-08-25T14:47:17.902Z,24.43
2023-08-25T14:49:45.770Z,24.34
2023-08-25T14:52:13.592Z,24.17
2023-08-25T14:54:43.304Z,24.08
2023-08-25T14:57:11.154Z,24.00
2023-08-25T14:59:38.875Z,23.97
2023-08-25T15:02:06.568Z,23.94
2023-08-25T15:04:34.440Z,23.86
2023-08-25T15:07:02.114Z,23.91
2023-08-25T15:09:29.849Z,24.02
2023-08-25T15:11:58.966Z,24.23
2023-08-25T15:14:26.770Z,24.40
2023-08-25T15:16:55.079Z,24.55
2023-08-25T15:19:22.860Z,24.68
2023-08-25T15:21:50.530Z,24.92
2023-08-25T15:24:18.563Z,25.11
2023-08-25T15:26:46.663Z,25.27
2023-08-25T15:29:15.730Z,25.41
2023-08-25T15:31:43.471Z,25.49
2023-08-25T15:34:11.532Z,25.44
2023-08-25T15:36:39.351Z,25.36
2023-08-25T15:39:07.242Z,25.28
2023-08-25T15:41:37.647Z,25.21
2023-08-25T15:44:05.906Z,25.06
2023-08-25T15:46:34.994Z,24.96
2023-08-25T15:49:03.149Z,24.88
2023-08-25T15:51:30.923Z,24.79
2023-08-25T15:53:58.597Z,24.71
2023-08-25T15:56:26.270Z,24.54
2023-08-25T15:58:53.942Z,24.45
2023-08-25T16:01:21.640Z,24.46
2023-08-25T16:03:50.723Z,24.42
2023-08-25T16:06:18.524Z,24.36
2023-08-25T16:08:46.254Z,24.34
2023-08-25T16:11:13.922Z,24.28
2023-08-25T16:13:43.085Z,24.20
2023-08-25T16:16:11.241Z,24.14
2023-08-25T16:18:41.451Z,24.04
2023-08-25T16:21:10.913Z,23.93
2023-08-25T16:23:39.687Z,23.87
2023-08-25T16:26:07.571Z,23.83
2023-08-25T16:28:35.323Z,23.75
2023-08-25T16:31:04.854Z,23.70
2023-08-25T16:33:33.583Z,23.62
2023-08-25T16:36:01.583Z,23.54
2023-08-25T16:38:31.404Z,23.48
2023-08-25T16:40:59.160Z,23.43
2023-08-25T16:43:27.018Z,23.40
2023-08-25T16:45:55.351Z,23.35
2023-08-25T16:48:23.461Z,23.24
2023-08-25T16:50:51.884Z,23.16
2023-08-25T16:53:20.282Z,23.12
2023-08-25T16:55:49.358Z,23.07
2023-08-25T16:58:17.110Z,22.97
2023-08-25T17:00:46.999Z,22.90
2023-08-25T17:03:15.408Z,22.87
2023-08-25T17:05:43.146Z,22.84
2023-08-25T17:08:10.910Z,22.85
2023-08-25T17:10:38.857Z,22.88
2023-08-25T17:13:08.219Z,22.87
2023-08-25T17:15:37.525Z,22.84
2023-08-25T17:18:06.438Z,22.80
2023-08-25T17:20:34.543Z,22.75
2023-08-25T17:23:02.431Z,22.68
2023-08-25T17:25:33.746Z,22.63
2023-08-25T17:28:01.446Z,22.60
2023-08-25T17:30:31.012Z,22.57
2023-08-25T17:32:58.962Z,22.55
2023-08-25T17:35:26.802Z,22.52
2023-08-25T17:37:54.506Z,22.49
2023-08-25T17:40:22.181Z,22.41
2023-08-25T17:42:49.852Z,22.30
2023-08-25T17:45:17.736Z,22.22
2023-08-25T17:47:46.842Z,22.13
2023-08-25T17:50:14.613Z,22.08
2023-08-25T17:52:42.334Z,22.01
2023-08-25T17:55:10.416Z,21.97
2023-08-25T17:57:38.820Z,21.94
2023-08-25T18:00:08.308Z,21.94
2023-08-25T18:02:41.069Z,21.91
2023-08-25T18:05:11.036Z,21.91
2023-08-25T18:07:38.754Z,21.91
2023-08-25T18:10:07.640Z,21.89
2023-08-25T18:12:35.395Z,21.89
2023-08-25T18:15:04.557Z,21.88
2023-08-25T18:17:32.475Z,21.87
2023-08-25T18:20:00.498Z,21.85
2023-08-25T18:22:29.881Z,21.83
2023-08-25T18:24:57.552Z,21.80
2023-08-25T18:27:25.589Z,21.78
2023-08-25T18:29:53.300Z,21.75
2023-08-25T18:32:21.818Z,21.69
2023-08-25T18:34:49.797Z,21.64
2023-08-25T18:37:17.614Z,21.60
2023-08-25T18:39:46.944Z,21.57
2023-08-25T18:42:14.634Z,21.56
2023-08-25T18:44:42.295Z,21.51
2023-08-25T18:47:10.035Z,21.49
2023-08-25T18:49:37.851Z,21.45
2023-08-25T18:52:06.515Z,21.42
2023-08-25T18:54:34.143Z,21.38
2023-08-25T18:57:03.316Z,21.32
2023-08-25T18:59:30.978Z,21.26
2023-08-25T19:01:58.758Z,21.20
2023-08-25T19:04:26.450Z,21.14
2023-08-25T19:06:54.456Z,21.09
2023-08-25T19:09:22.992Z,21.06
2023-08-25T19:11:50.734Z,21.05
2023-08-25T19:14:19.747Z,21.01
2023-08-25T19:16:47.419Z,20.98
2023-08-25T19:19:15.070Z,20.95
2023-08-25T19:21:42.783Z,20.92
2023-08-25T19:24:10.462Z,20.89
2023-08-25T19:26:38.156Z,20.82
2023-08-25T19:29:07.404Z,20.74
2023-08-25T19:31:36.580Z,20.64
2023-08-25T19:34:05.499Z,20.55
2023-08-25T19:36:39.301Z,20.47
2023-08-25T19:39:07.802Z,20.42
2023-08-25T19:41:35.507Z,20.37
2023-08-25T19:44:03.465Z,20.35
2023-08-25T19:46:31.207Z,20.33
2023-08-25T19:49:01.189Z,20.31
2023-08-25T19:51:29.150Z,20.31
2023-08-25T19:53:57.179Z,20.32
2023-08-25T19:56:25.185Z,20.34
2023-08-25T19:58:53.576Z,20.36
2023-08-25T20:01:21.371Z,20.39
2023-08-25T20:03:49.337Z,20.45
2023-08-25T20:06:18.652Z,20.49
2023-08-25T20:08:47.788Z,20.51
2023-08-25T20:11:16.036Z,20.51
2023-08-25T20:13:43.786Z,20.45
2023-08-25T20:16:11.787Z,20.38
2023-08-25T20:18:39.447Z,20.33
2023-08-25T20:21:07.729Z,20.30
2023-08-25T20:23:38.666Z,20.26
2023-08-25T20:26:06.982Z,20.22
2023-08-25T20:28:38.863Z,20.18
2023-08-25T20:31:06.725Z,20.15
2023-08-25T20:33:34.942Z,20.14
2023-08-25T20:36:04.447Z,20.12
2023-08-25T20:38:33.289Z,20.12
2023-08-25T20:41:04.559Z,20.08
2023-08-25T20:43:32.337Z,20.02
2023-08-25T20:46:16.418Z,19.96
2023-08-25T20:48:47.890Z,19.89
2023-08-25T20:51:15.986Z,19.82
2023-08-25T20:53:43.915Z,19.75
2023-08-25T20:56:12.980Z,19.70
2023-08-25T20:58:40.858Z,19.62
2023-08-25T21:01:10.026Z,19.55
2023-08-25T21:03:38.323Z,19.47
2023-08-25T21:06:06.854Z,19.39
2023-08-25T21:08:35.407Z,19.35
2023-08-25T21:11:04.713Z,19.34
2023-08-25T21:13:34.673Z,19.32
2023-08-25T21:16:02.863Z,19.29
2023-08-25T21:18:30.614Z,19.23
2023-08-25T21:21:01.025Z,19.20
2023-08-25T21:23:28.961Z,19.21
2023-08-25T21:26:00.364Z,19.22
2023-08-25T21:28:28.934Z,19.25
2023-08-25T21:30:59.994Z,19.26
2023-08-25T21:33:29.143Z,19.27
2023-08-25T21:35:56.853Z,19.29
2023-08-25T21:38:24.622Z,19.32
2023-08-25T21:40:52.251Z,19.29
2023-08-25T21:43:20.012Z,19.25
2023-08-25T21:45:49.081Z,19.20
2023-08-25T21:48:18.223Z,19.13
2023-08-25T21:50:46.532Z,19.04
2023-08-25T21:53:14.233Z,18.97
2023-08-25T21:55:42.051Z,18.91
2023-08-25T21:58:09.873Z,18.87
2023-08-25T22:00:37.696Z,18.83
2023-08-25T22:03:06.293Z,18.80
2023-08-25T22:05:37.742Z,18.84
2023-08-25T22:08:06.229Z,18.88
2023-08-25T22:10:36.409Z,18.93
2023-08-25T22:13:04.415Z,18.98
2023-08-25T22:15:32.363Z,19.05
2023-08-25T22:18:00.789Z,19.10
2023-08-25T22:20:28.811Z,19.14
2023-08-25T22:22:58.058Z,19.15
2023-08-25T22:25:26.060Z,19.12
2023-08-25T22:27:53.760Z,19.10
2023-08-25T22:30:21.458Z,19.07
2023-08-25T22:35:20.014Z,19.08
2023-08-25T22:37:47.657Z,19.06
2023-08-25T22:40:16.741Z,19.00
2023-08-25T22:42:44.378Z,18.96
2023-08-25T22:45:12.154Z,18.94
2023-08-25T22:47:39.927Z,18.91
2023-08-25T22:50:08.411Z,18.91
2023-08-25T22:52:36.078Z,18.90
2023-08-25T22:55:03.825Z,18.89
2023-08-25T22:57:32.827Z,18.87
2023-08-25T23:00:00.540Z,18.82
2023-08-25T23:02:28.260Z,18.79
2023-08-25T23:04:56.036Z,18.78
2023-08-25T23:07:23.738Z,18.75
2023-08-25T23:09:51.479Z,18.76
2023-08-25T23:12:19.139Z,18.74
2023-08-25T23:14:48.157Z,18.74
2023-08-25T23:17:15.833Z,18.73
2023-08-25T23:19:43.660Z,18.74
2023-08-25T23:22:12.895Z,18.73
2023-08-25T23:24:44.813Z,18.70
2023-08-25T23:27:13.444Z,18.68
2023-08-25T23:29:41.640Z,18.67
2023-08-25T23:32:10.918Z,18.65
2023-08-25T23:34:38.592Z,18.64
2023-08-25T23:37:06.306Z,18.63
2023-08-25T23:39:34.019Z,18.60
2023-08-25T23:42:01.720Z,18.58
2023-08-25T23:44:29.528Z,18.57
2023-08-25T23:46:57.403Z,18.55
2023-08-25T23:49:26.448Z,18.52
2023-08-25T23:51:54.417Z,18.51
2023-08-25T23:54:22.097Z,18.54
2023-08-25T23:56:49.820Z,18.56
2023-08-25T23:59:17.607Z,18.60
